Cambridge, Canada
Current Conditions -  °F | °C
As of 1:00 AM on Wednesday 28 Jan 2015 (Local Time) from CYKF Reporting Station
Clear Clear  
Wind Chill: -16°   Ceiling: Unl
Heat Index: -16°   Visibility: 9mi
Dew Point: -18°   Wind: 3mph
Humidity: 85%   Direction: 330°NNW
Pressure: 30.12"   Gusts: NA
Location:  43.38°N, 80.32°W
Report Text: CYKF 280600Z AUTO 33003KT 9SM CLR M16/M18 A3012 RMK SLP224
Loading
Personal Weather Stations






























Interactive Weather Map New forecast layout! Learn more

10-Day Weather Forecast

Advertisements
Track Severe Weather on mobile